Time;durP1;ratioP1;P1;durP2;ratioP2;P2;SDS_P1;SDS_P2;PMS_P1;PMS_P2;Temp;Humidity;BMP_temperature;BMP_pressure;BME280_temperature;BME280_humidity;BME280_pressure;Samples;Min_cycle;Max_cycle;Signal;HPM_P1;HPM_P2
2023/12/07 00:00:08;;;;;;;7.00;2.85;;;17.20;55.70;;;;;;6118195;23;20150;-85
2023/12/07 00:02:34;;;;;;;6.07;2.50;;;17.10;55.90;;;;;;6118850;23;20146;-85
2023/12/07 00:04:59;;;;;;;7.80;2.50;;;17.20;55.80;;;;;;6143794;23;20209;-85
2023/12/07 00:07:26;;;;;;;5.57;2.58;;;17.10;55.80;;;;;;6097129;23;20218;-85
2023/12/07 00:09:52;;;;;;;5.85;2.63;;;17.10;55.90;;;;;;6168163;23;20135;-85
2023/12/07 00:12:22;;;;;;;6.38;2.65;;;17.10;55.80;;;;;;6167393;23;20151;-85
2023/12/07 00:14:47;;;;;;;6.57;2.80;;;17.10;55.60;;;;;;6107428;23;20198;-85
2023/12/07 00:17:17;;;;;;;6.43;2.63;;;17.10;55.70;;;;;;6119516;23;20242;-85
2023/12/07 00:19:45;;;;;;;6.45;2.95;;;17.10;55.80;;;;;;6116959;23;20155;-84
2023/12/07 00:22:10;;;;;;;7.53;2.65;;;17.10;56.50;;;;;;6132556;23;20152;-85
2023/12/07 00:24:38;;;;;;;4.50;2.60;;;17.10;55.80;;;;;;6083883;23;20164;-85
2023/12/07 00:27:05;;;;;;;4.82;2.50;;;17.10;55.70;;;;;;6083597;23;20199;-86
2023/12/07 00:29:32;;;;;;;5.97;2.33;;;17.10;55.80;;;;;;6083657;23;20140;-85
2023/12/07 00:31:58;;;;;;;6.72;2.80;;;17.10;55.90;;;;;;6083576;23;20275;-86
2023/12/07 00:34:24;;;;;;;6.22;2.40;;;17.10;55.80;;;;;;6083253;23;20176;-86
2023/12/07 00:36:59;;;;;;;5.40;2.80;;;17.10;55.70;;;;;;6083018;23;20219;-86
2023/12/07 00:39:25;;;;;;;5.93;2.53;;;17.10;55.70;;;;;;6035821;23;20147;-85
2023/12/07 00:41:50;;;;;;;4.55;2.60;;;17.00;55.50;;;;;;6107971;23;20219;-86
2023/12/07 00:44:19;;;;;;;4.35;2.55;;;17.10;55.70;;;;;;6084166;23;20229;-86
2023/12/07 00:46:47;;;;;;;5.40;2.70;;;17.10;55.80;;;;;;6035543;23;20180;-86
2023/12/07 00:49:17;;;;;;;4.75;2.50;;;17.10;55.70;;;;;;6083766;23;20176;-86
2023/12/07 00:51:43;;;;;;;5.88;2.55;;;17.00;55.60;;;;;;6106437;23;20143;-86
2023/12/07 00:54:10;;;;;;;6.20;2.70;;;17.00;55.80;;;;;;6107982;23;20176;-86
2023/12/07 00:59:04;;;;;;;4.97;2.50;;;17.00;55.80;;;;;;6157179;23;20202;-86
2023/12/07 01:01:31;;;;;;;4.15;2.50;;;17.00;55.70;;;;;;6093408;23;20602;-85
2023/12/07 01:03:58;;;;;;;5.75;2.65;;;17.00;55.80;;;;;;6093315;23;20158;-87
2023/12/07 01:06:25;;;;;;;5.10;2.38;;;17.00;55.70;;;;;;6093653;23;20151;-86
2023/12/07 01:08:54;;;;;;;4.75;2.47;;;17.00;55.80;;;;;;6142503;23;20155;-86
2023/12/07 01:11:25;;;;;;;7.00;2.50;;;17.00;55.70;;;;;;6069153;23;20211;-86
2023/12/07 01:16:17;;;;;;;5.68;2.50;;;17.00;55.70;;;;;;6135853;23;20239;-84
2023/12/07 01:18:44;;;;;;;6.90;2.63;;;17.00;55.50;;;;;;6060491;23;20155;-86
2023/12/07 01:21:10;;;;;;;4.95;2.70;;;17.00;55.50;;;;;;6060686;23;20159;-85
2023/12/07 01:23:35;;;;;;;6.90;2.47;;;17.00;55.70;;;;;;6142111;23;20198;-86
2023/12/07 01:26:02;;;;;;;4.80;2.45;;;17.00;55.80;;;;;;6148208;23;20157;-86
2023/12/07 01:28:31;;;;;;;3.50;2.30;;;17.00;55.60;;;;;;6173048;23;20166;-86
2023/12/07 01:30:59;;;;;;;4.55;2.28;;;16.90;55.60;;;;;;6148559;23;20157;-86
2023/12/07 01:33:30;;;;;;;4.93;2.65;;;16.90;55.50;;;;;;6122680;23;20174;-86
2023/12/07 01:35:58;;;;;;;4.50;2.58;;;17.00;55.60;;;;;;6197086;23;20130;-86
2023/12/07 01:38:24;;;;;;;6.00;2.80;;;16.90;55.30;;;;;;6172389;23;20159;-86
2023/12/07 01:40:50;;;;;;;4.47;2.63;;;17.00;55.50;;;;;;6172794;23;20464;-85
2023/12/07 01:43:20;;;;;;;5.03;2.67;;;17.00;55.50;;;;;;6147781;23;20146;-86
2023/12/07 01:45:46;;;;;;;4.53;2.47;;;17.00;55.40;;;;;;6149462;23;20204;-86
2023/12/07 01:48:14;;;;;;;4.95;2.40;;;17.00;55.60;;;;;;6149681;23;20528;-86
2023/12/07 01:50:46;;;;;;;5.85;2.60;;;17.00;55.60;;;;;;6173912;23;20154;-86
2023/12/07 01:53:12;;;;;;;4.15;2.65;;;17.00;55.50;;;;;;6124366;23;20150;-86
2023/12/07 01:55:38;;;;;;;5.53;2.60;;;17.00;55.40;;;;;;6199375;23;20181;-86
2023/12/07 01:58:10;;;;;;;5.38;2.67;;;17.00;56.10;;;;;;6148852;23;20142;-85
2023/12/07 02:00:40;;;;;;;6.95;2.75;;;17.00;55.50;;;;;;6174269;23;20146;-85
2023/12/07 02:03:06;;;;;;;4.60;2.50;;;17.00;55.40;;;;;;6198410;23;20146;-85
2023/12/07 02:05:33;;;;;;;4.25;2.58;;;16.90;55.50;;;;;;6136877;23;20213;-85
2023/12/07 02:08:06;;;;;;;5.22;2.42;;;17.00;55.50;;;;;;6116480;23;20132;-85
2023/12/07 02:10:33;;;;;;;6.03;2.70;;;16.90;55.50;;;;;;6095031;23;20154;-85
2023/12/07 02:13:03;;;;;;;5.72;2.80;;;16.90;55.50;;;;;;6169087;23;20138;-85
2023/12/07 02:15:31;;;;;;;5.38;3.10;;;16.90;55.80;;;;;;6094264;23;20169;-85
2023/12/07 02:18:15;;;;;;;4.82;2.30;;;16.90;55.40;;;;;;6120067;23;20142;-86
2023/12/07 02:21:01;;;;;;;5.47;2.58;;;16.90;55.40;;;;;;6168424;23;20135;-85
2023/12/07 02:23:32;;;;;;;4.55;2.47;;;16.90;55.50;;;;;;6147024;23;20203;-85
2023/12/07 02:26:03;;;;;;;4.88;2.47;;;17.00;55.30;;;;;;6118536;23;20185;-85
2023/12/07 02:28:33;;;;;;;4.53;2.40;;;16.90;55.60;;;;;;6120060;23;20249;-85
2023/12/07 02:31:03;;;;;;;5.20;2.65;;;16.90;55.50;;;;;;6094495;23;20157;-85
2023/12/07 02:33:29;;;;;;;5.35;2.45;;;16.90;55.40;;;;;;6094512;23;20179;-85
2023/12/07 02:35:56;;;;;;;5.25;2.72;;;16.90;55.30;;;;;;6168192;23;20131;-85
2023/12/07 02:40:54;;;;;;;5.78;2.75;;;16.90;55.20;;;;;;6162984;23;20203;-86
2023/12/07 02:43:23;;;;;;;4.53;2.63;;;16.90;55.30;;;;;;6118146;23;20158;-86
2023/12/07 02:45:53;;;;;;;4.93;2.65;;;16.90;55.30;;;;;;6093757;23;20157;-87
2023/12/07 02:48:24;;;;;;;4.60;2.45;;;16.90;55.50;;;;;;6094233;23;20539;-87
2023/12/07 02:50:49;;;;;;;5.47;3.10;;;16.90;55.40;;;;;;6127706;23;20217;-85
2023/12/07 02:53:22;;;;;;;4.10;2.60;;;16.90;55.50;;;;;;6113469;23;20191;-85
2023/12/07 02:55:48;;;;;;;4.55;2.40;;;16.90;55.30;;;;;;6065357;23;20151;-85
2023/12/07 02:58:16;;;;;;;3.92;2.25;;;16.90;55.40;;;;;;6114048;23;20163;-85
2023/12/07 03:00:42;;;;;;;5.47;2.55;;;16.90;55.20;;;;;;6089509;23;20202;-86
2023/12/07 03:05:52;;;;;;;5.90;2.67;;;16.90;55.50;;;;;;6133661;23;20208;-85
2023/12/07 03:08:22;;;;;;;4.60;2.50;;;16.90;55.40;;;;;;6012482;23;20622;-84
2023/12/07 03:10:50;;;;;;;4.60;2.47;;;16.90;55.30;;;;;;6013084;23;20484;-85
2023/12/07 03:13:16;;;;;;;3.30;2.10;;;16.90;55.10;;;;;;6085303;23;20163;-86
2023/12/07 03:18:26;;;;;;;4.85;2.65;;;16.90;55.10;;;;;;6181761;23;20206;-87
2023/12/07 03:20:53;;;;;;;5.90;2.70;;;16.80;55.10;;;;;;6167039;23;20153;-86
2023/12/07 03:23:19;;;;;;;4.95;2.42;;;16.90;55.20;;;;;;6118398;23;20147;-86
2023/12/07 03:25:45;;;;;;;5.68;2.53;;;16.90;55.20;;;;;;6167610;23;20131;-86
2023/12/07 03:28:11;;;;;;;4.10;2.47;;;16.80;55.20;;;;;;6119219;23;20486;-86
2023/12/07 03:30:41;;;;;;;4.93;2.70;;;16.80;55.30;;;;;;6118984;23;20189;-86
2023/12/07 03:33:09;;;;;;;5.25;2.72;;;16.80;55.40;;;;;;6167983;23;20151;-86
2023/12/07 03:38:03;;;;;;;5.40;2.60;;;16.80;55.30;;;;;;6159461;23;20266;-85
2023/12/07 03:40:30;;;;;;;4.32;2.60;;;16.80;55.20;;;;;;6088886;23;20178;-85
2023/12/07 03:42:56;;;;;;;3.35;2.17;;;16.90;55.30;;;;;;6113728;23;20152;-86
2023/12/07 03:45:22;;;;;;;6.13;2.65;;;16.80;55.30;;;;;;6089549;23;20203;-86
2023/12/07 03:47:48;;;;;;;4.18;2.60;;;16.80;55.20;;;;;;6089754;23;20151;-86
2023/12/07 03:50:14;;;;;;;4.45;2.50;;;16.80;55.20;;;;;;6115243;23;20127;-86
2023/12/07 03:52:48;;;;;;;5.40;2.80;;;16.80;55.20;;;;;;6138403;23;20138;-86
2023/12/07 03:55:17;;;;;;;3.95;2.50;;;16.80;55.20;;;;;;6066238;23;20191;-86
2023/12/07 03:57:43;;;;;;;4.00;2.42;;;16.80;55.20;;;;;;6088928;23;20162;-85
2023/12/07 04:00:14;;;;;;;3.67;2.55;;;16.90;55.40;;;;;;6090796;23;20196;-86
2023/12/07 04:02:47;;;;;;;3.95;2.70;;;16.90;55.40;;;;;;6065598;23;20219;-86
2023/12/07 04:05:14;;;;;;;3.40;2.38;;;16.80;55.10;;;;;;6125414;23;20202;-85
2023/12/07 04:07:41;;;;;;;4.07;2.40;;;16.90;55.20;;;;;;6169031;23;20189;-85
2023/12/07 04:10:09;;;;;;;3.88;2.70;;;16.80;55.20;;;;;;6144307;23;20142;-85
2023/12/07 04:15:12;;;;;;;4.00;2.33;;;16.80;55.10;;;;;;6193073;23;20202;-85
2023/12/07 04:17:38;;;;;;;5.55;2.50;;;16.80;55.00;;;;;;6144118;23;20147;-86
2023/12/07 04:20:05;;;;;;;5.78;2.50;;;16.80;54.90;;;;;;6144341;23;20158;-85
2023/12/07 04:22:31;;;;;;;3.60;2.33;;;16.80;55.00;;;;;;6144814;23;20151;-85
2023/12/07 04:24:57;;;;;;;5.07;2.33;;;16.80;55.10;;;;;;6144134;23;20571;-85
2023/12/07 04:27:32;;;;;;;4.07;2.25;;;16.80;55.00;;;;;;6120779;23;20150;-86
2023/12/07 04:30:02;;;;;;;5.25;2.50;;;16.80;54.90;;;;;;6096128;23;20157;-86
2023/12/07 04:32:28;;;;;;;4.43;2.55;;;16.80;54.80;;;;;;6120192;23;20178;-86
2023/12/07 04:34:54;;;;;;;4.35;2.60;;;16.80;54.90;;;;;;6121004;23;20178;-86
2023/12/07 04:37:25;;;;;;;5.47;3.00;;;16.80;54.90;;;;;;6144706;23;20174;-86
2023/12/07 04:39:56;;;;;;;2.53;2.00;;;16.80;55.00;;;;;;6072183;23;20224;-86
2023/12/07 04:42:24;;;;;;;4.75;2.40;;;16.80;55.10;;;;;;6120702;23;20151;-86
2023/12/07 04:44:51;;;;;;;4.25;2.45;;;16.80;55.20;;;;;;6121551;23;20147;-85
2023/12/07 04:47:16;;;;;;;5.60;2.50;;;16.80;55.10;;;;;;6145992;23;20149;-86
2023/12/07 04:49:42;;;;;;;4.30;2.50;;;16.80;55.00;;;;;;6121338;23;20167;-86
2023/12/07 04:52:08;;;;;;;4.32;2.28;;;16.70;55.10;;;;;;6113369;23;21049;-84
2023/12/07 04:54:34;;;;;;;5.40;2.60;;;16.80;55.00;;;;;;6088216;23;20231;-85
2023/12/07 04:59:31;;;;;;;3.83;2.42;;;16.70;54.90;;;;;;6111929;23;20204;-85
2023/12/07 05:02:02;;;;;;;5.05;2.50;;;16.80;55.60;;;;;;6063452;23;20148;-85
2023/12/07 05:04:27;;;;;;;4.68;2.47;;;16.80;55.00;;;;;;6064049;23;20152;-85
2023/12/07 05:06:55;;;;;;;4.53;2.67;;;16.70;55.00;;;;;;6064821;23;20143;-86
2023/12/07 05:09:32;;;;;;;3.53;2.10;;;16.70;55.00;;;;;;6088740;23;20152;-86
2023/12/07 05:12:05;;;;;;;6.45;3.00;;;16.80;55.00;;;;;;6087303;23;20151;-86
2023/12/07 05:17:07;;;;;;;4.88;2.47;;;16.80;55.00;;;;;;6160704;23;20206;-85
2023/12/07 05:19:34;;;;;;;4.10;2.67;;;16.80;55.00;;;;;;6118262;23;20143;-84
2023/12/07 05:22:00;;;;;;;3.75;2.20;;;16.70;55.70;;;;;;6117463;23;20207;-85
2023/12/07 05:24:25;;;;;;;5.50;2.40;;;16.80;54.90;;;;;;6116789;23;20150;-84
2023/12/07 05:26:51;;;;;;;4.10;2.30;;;16.70;54.90;;;;;;6092891;23;20140;-84
2023/12/07 05:29:19;;;;;;;4.05;2.30;;;16.80;54.80;;;;;;6117697;23;20124;-85
2023/12/07 05:31:45;;;;;;;3.92;2.42;;;16.80;54.90;;;;;;6093823;23;20150;-86
2023/12/07 05:34:11;;;;;;;3.25;2.25;;;16.80;54.90;;;;;;6058271;23;20176;-86
2023/12/07 05:36:40;;;;;;;4.47;2.40;;;16.80;54.90;;;;;;6034807;23;20149;-86
2023/12/07 05:39:11;;;;;;;3.45;2.38;;;16.80;54.80;;;;;;6058639;23;20163;-86
2023/12/07 05:41:37;;;;;;;3.55;2.08;;;16.80;54.80;;;;;;6011476;23;20220;-85
2023/12/07 05:44:05;;;;;;;3.80;2.33;;;16.70;54.80;;;;;;6058733;23;20157;-85
2023/12/07 05:46:35;;;;;;;4.32;2.30;;;16.70;54.70;;;;;;6001404;23;20156;-85
2023/12/07 05:49:05;;;;;;;4.25;2.30;;;16.80;54.80;;;;;;5978413;23;20208;-85
2023/12/07 05:51:35;;;;;;;3.55;2.35;;;16.70;54.80;;;;;;6001195;23;20496;-87
2023/12/07 05:54:01;;;;;;;4.32;2.30;;;16.70;55.50;;;;;;6001206;23;20217;-85
2023/12/07 05:56:26;;;;;;;4.18;2.47;;;16.70;54.80;;;;;;6049066;23;20170;-86
2023/12/07 05:58:54;;;;;;;3.63;2.33;;;16.80;54.60;;;;;;6072685;23;20163;-86
2023/12/07 06:01:20;;;;;;;2.88;1.98;;;16.70;54.80;;;;;;6072758;23;20161;-86
2023/12/07 06:03:46;;;;;;;4.72;2.60;;;16.70;54.70;;;;;;6048508;23;20157;-86
2023/12/07 06:06:13;;;;;;;5.00;2.53;;;16.70;54.80;;;;;;6085578;23;20241;-86
2023/12/07 06:08:40;;;;;;;5.07;2.65;;;16.70;54.70;;;;;;6136712;23;20131;-86
2023/12/07 06:11:05;;;;;;;3.60;2.28;;;16.80;54.80;;;;;;6135635;23;20737;-86
2023/12/07 06:13:33;;;;;;;3.42;2.20;;;16.70;54.70;;;;;;6111186;23;20197;-86
2023/12/07 06:16:01;;;;;;;3.75;2.30;;;16.70;54.60;;;;;;6111885;23;20218;-86
2023/12/07 06:18:27;;;;;;;4.65;2.60;;;16.70;54.70;;;;;;6113152;23;20485;-85
2023/12/07 06:20:57;;;;;;;5.15;2.35;;;16.80;54.70;;;;;;6136825;23;20147;-85
2023/12/07 06:23:25;;;;;;;4.18;2.30;;;16.70;54.60;;;;;;6136398;23;20151;-85
2023/12/07 06:25:55;;;;;;;4.85;2.63;;;16.80;54.60;;;;;;6136650;23;20181;-86
2023/12/07 06:28:24;;;;;;;4.97;2.70;;;16.70;54.70;;;;;;6063843;23;20527;-85
2023/12/07 06:30:53;;;;;;;3.63;2.10;;;16.70;54.60;;;;;;6137175;23;20131;-85
2023/12/07 06:33:20;;;;;;;4.68;2.35;;;16.80;54.50;;;;;;6137537;23;20158;-85
2023/12/07 06:35:47;;;;;;;4.38;2.30;;;16.70;54.60;;;;;;6137548;23;20153;-85
2023/12/07 06:38:12;;;;;;;5.25;2.50;;;16.70;54.70;;;;;;6113291;23;20576;-86
2023/12/07 06:40:43;;;;;;;3.97;2.30;;;16.70;54.80;;;;;;6138351;23;20154;-86
2023/12/07 06:43:11;;;;;;;3.25;2.22;;;16.70;54.70;;;;;;6088302;23;20157;-86
2023/12/07 06:45:40;;;;;;;3.22;2.25;;;16.70;54.70;;;;;;6087285;23;20154;-86
2023/12/07 06:48:08;;;;;;;3.13;2.03;;;16.70;54.80;;;;;;6111472;23;20213;-86
2023/12/07 06:50:38;;;;;;;3.92;2.47;;;16.70;54.60;;;;;;6112982;23;20147;-86
2023/12/07 06:53:07;;;;;;;3.97;2.15;;;16.70;54.60;;;;;;6086735;23;20166;-86
2023/12/07 06:55:35;;;;;;;5.00;2.72;;;16.80;54.60;;;;;;6112841;23;20233;-86
2023/12/07 06:58:05;;;;;;;2.58;2.03;;;16.70;54.40;;;;;;6063748;23;20209;-87
2023/12/07 07:00:36;;;;;;;3.30;2.17;;;16.70;54.50;;;;;;6111686;23;20281;-86
2023/12/07 07:03:06;;;;;;;4.65;2.38;;;16.70;54.60;;;;;;6088333;23;20578;-86
2023/12/07 07:05:36;;;;;;;3.35;2.30;;;16.70;55.10;;;;;;6112638;23;20602;-86
2023/12/07 07:08:08;;;;;;;4.53;2.55;;;16.70;54.40;;;;;;6086956;23;20172;-85
2023/12/07 07:10:35;;;;;;;4.22;2.60;;;16.70;54.20;;;;;;6087273;23;20155;-86
2023/12/07 07:13:05;;;;;;;3.80;2.30;;;16.70;54.30;;;;;;6111818;23;20143;-85
2023/12/07 07:15:32;;;;;;;3.60;2.15;;;16.80;53.30;;;;;;6062733;23;20213;-86
2023/12/07 07:17:58;;;;;;;4.80;2.38;;;16.80;53.40;;;;;;6111757;23;20143;-86
2023/12/07 07:20:24;;;;;;;3.15;2.00;;;16.90;53.30;;;;;;6162943;23;20131;-86
2023/12/07 07:22:54;;;;;;;4.13;2.58;;;16.90;53.60;;;;;;6114529;23;20455;-85
2023/12/07 07:25:26;;;;;;;3.58;2.30;;;16.90;53.60;;;;;;6092395;23;20178;-85
2023/12/07 07:27:56;;;;;;;3.33;2.17;;;16.90;53.70;;;;;;6097545;23;20151;-86
2023/12/07 07:30:22;;;;;;;4.25;2.38;;;16.90;53.60;;;;;;6074795;23;20249;-85
2023/12/07 07:32:49;;;;;;;2.92;2.15;;;16.80;53.80;;;;;;6149443;23;20150;-85
2023/12/07 07:35:19;;;;;;;4.28;2.30;;;16.80;53.40;;;;;;6148162;23;20174;-85
2023/12/07 07:37:45;;;;;;;3.70;2.20;;;16.90;53.60;;;;;;6099211;23;20146;-85
2023/12/07 07:40:12;;;;;;;3.40;2.22;;;16.90;53.60;;;;;;6106103;23;20199;-86
2023/12/07 07:42:42;;;;;;;2.63;2.20;;;16.90;53.30;;;;;;6105744;23;20619;-86
2023/12/07 07:45:09;;;;;;;3.20;2.20;;;16.90;53.30;;;;;;6078954;23;20183;-86
2023/12/07 07:47:35;;;;;;;3.17;2.45;;;16.90;53.70;;;;;;6102599;23;20156;-86
2023/12/07 07:50:05;;;;;;;3.55;2.10;;;16.90;53.70;;;;;;6128708;23;20149;-85
2023/12/07 07:52:35;;;;;;;3.03;2.20;;;16.90;53.70;;;;;;6103665;23;20284;-85
2023/12/07 07:55:05;;;;;;;4.35;2.53;;;16.90;54.10;;;;;;6080043;23;20243;-85
2023/12/07 07:57:34;;;;;;;3.05;2.30;;;16.80;53.40;;;;;;6079218;23;20145;-85
2023/12/07 08:00:08;;;;;;;3.15;2.10;;;16.90;53.20;;;;;;6081015;23;20253;-86
2023/12/07 08:02:36;;;;;;;4.00;2.10;;;16.90;53.60;;;;;;6128686;23;20156;-86
2023/12/07 08:05:02;;;;;;;3.17;2.30;;;16.90;53.90;;;;;;6128681;23;20148;-86
2023/12/07 08:07:30;;;;;;;3.17;2.10;;;16.80;54.00;;;;;;6105048;23;20145;-85
2023/12/07 08:09:56;;;;;;;2.70;2.00;;;17.00;53.80;;;;;;6127354;23;20143;-86
2023/12/07 08:12:23;;;;;;;5.00;2.40;;;16.90;51.90;;;;;;6167550;23;20159;-86
2023/12/07 08:14:50;;;;;;;2.75;2.10;;;17.00;53.10;;;;;;6118528;23;20175;-86
2023/12/07 08:17:19;;;;;;;3.70;2.15;;;17.10;52.60;;;;;;6118531;23;20218;-86
2023/12/07 08:19:47;;;;;;;3.00;2.00;;;17.20;52.10;;;;;;6118042;23;20158;-85
2023/12/07 08:22:32;;;;;;;;;;;;;;;;;;;;;
2023/12/07 08:25:23;;;;;;;;;;;;;;;;;;;;;
2023/12/07 08:27:51;;;;;;;3.40;2.25;;;17.20;51.80;;;;;;6034923;23;20231;-84
2023/12/07 08:30:28;;;;;;;4.97;2.20;;;17.30;51.70;;;;;;6056657;23;20152;-83
2023/12/07 08:33:10;;;;;;;2.78;2.05;;;17.30;51.70;;;;;;6020866;23;20529;-84
2023/12/07 08:35:40;;;;;;;3.30;2.30;;;17.30;52.00;;;;;;5998194;23;20225;-83
2023/12/07 08:38:10;;;;;;;3.20;1.90;;;17.20;51.50;;;;;;5997610;23;20242;-82
2023/12/07 08:40:38;;;;;;;6.05;2.38;;;17.30;51.60;;;;;;5998289;23;20160;-84
2023/12/07 08:43:13;;;;;;;2.60;1.83;;;17.30;52.50;;;;;;5998067;23;20158;-84
2023/12/07 08:45:39;;;;;;;2.65;1.98;;;17.30;51.70;;;;;;5997279;23;20221;-83
2023/12/07 08:48:07;;;;;;;3.45;1.85;;;17.30;52.00;;;;;;6043853;23;20146;-84
2023/12/07 08:50:33;;;;;;;5.55;2.10;;;17.30;52.00;;;;;;6021583;23;20244;-83
2023/12/07 08:53:00;;;;;;;3.10;1.98;;;17.30;51.80;;;;;;6041366;23;20169;-83
2023/12/07 08:55:26;;;;;;;3.10;2.00;;;17.20;52.20;;;;;;6017285;23;20194;-83
2023/12/07 08:57:56;;;;;;;4.50;1.98;;;17.20;52.00;;;;;;6040943;23;20618;-82
2023/12/07 09:00:32;;;;;;;5.90;2.17;;;17.30;52.00;;;;;;6063839;23;20631;-84
2023/12/07 09:03:14;;;;;;;5.40;2.22;;;17.30;51.50;;;;;;6087858;23;20150;-83
2023/12/07 09:05:59;;;;;;;15.13;3.30;;;17.30;52.00;;;;;;6139565;23;20161;-84
2023/12/07 09:09:01;;;;;;;11.27;2.85;;;17.30;51.90;;;;;;6144313;23;20469;-83
2023/12/07 09:11:37;;;;;;;15.35;2.80;;;17.30;51.50;;;;;;6113147;23;20154;-82
2023/12/07 09:14:42;;;;;;;;;;;;;;;;;;;;;
2023/12/07 09:17:17;;;;;;;11.95;2.58;;;17.30;51.70;;;;;;6154027;23;20269;-83
2023/12/07 09:20:01;;;;;;;8.27;2.40;;;17.30;51.30;;;;;;6162746;23;20133;-84
2023/12/07 09:23:00;;;;;;;;;;;;;;;;;;;;;
2023/12/07 09:25:35;;;;;;;12.85;2.30;;;17.50;51.40;;;;;;6085620;23;20229;-84
2023/12/07 09:28:02;;;;;;;7.43;2.35;;;17.40;51.90;;;;;;6097000;23;20156;-86
2023/12/07 09:30:28;;;;;;;12.23;2.15;;;17.50;50.90;;;;;;6074108;23;20235;-83
2023/12/07 09:33:04;;;;;;;8.23;2.40;;;17.50;51.10;;;;;;6073905;23;20209;-84
2023/12/07 09:35:34;;;;;;;9.10;2.33;;;17.50;51.30;;;;;;6073056;23;20203;-83
2023/12/07 09:38:00;;;;;;;7.05;2.65;;;17.40;51.00;;;;;;6039130;23;20253;-84
2023/12/07 09:40:33;;;;;;;13.60;2.65;;;17.40;51.80;;;;;;6016519;23;20178;-85
2023/12/07 09:43:06;;;;;;;5.78;2.38;;;17.40;51.40;;;;;;5971229;23;20165;-85
2023/12/07 09:45:35;;;;;;;5.25;2.20;;;17.50;50.80;;;;;;5974493;23;20574;-85
2023/12/07 09:48:02;;;;;;;8.02;2.25;;;17.40;51.50;;;;;;6024354;23;20161;-84
2023/12/07 09:50:32;;;;;;;8.23;2.20;;;17.50;51.50;;;;;;6004041;23;20198;-84
2023/12/07 09:53:04;;;;;;;10.80;2.70;;;17.50;51.70;;;;;;5980758;23;20154;-83
2023/12/07 09:55:30;;;;;;;7.57;2.30;;;17.40;51.50;;;;;;6002316;23;20174;-83
2023/12/07 09:57:58;;;;;;;8.27;2.63;;;17.30;51.70;;;;;;5988294;23;20240;-84
2023/12/07 10:00:25;;;;;;;10.93;2.42;;;17.50;51.90;;;;;;6039166;23;20151;-85
2023/12/07 10:02:56;;;;;;;7.53;2.20;;;17.40;51.40;;;;;;6005962;23;20170;-83
2023/12/07 10:05:22;;;;;;;9.73;2.47;;;17.40;52.50;;;;;;6054022;23;20233;-84
2023/12/07 10:07:50;;;;;;;9.02;2.10;;;17.40;52.20;;;;;;6030362;23;20165;-84
2023/12/07 10:10:20;;;;;;;7.43;2.10;;;17.40;51.80;;;;;;6085647;23;20160;-83
2023/12/07 10:12:59;;;;;;;6.97;2.20;;;17.30;52.10;;;;;;6086235;23;20189;-83
2023/12/07 10:15:28;;;;;;;5.40;2.00;;;17.40;51.90;;;;;;6082414;23;20259;-83
2023/12/07 10:17:59;;;;;;;7.65;2.00;;;17.40;51.60;;;;;;6034345;23;20157;-84
2023/12/07 10:20:32;;;;;;;7.57;2.20;;;17.40;52.40;;;;;;6005577;23;20166;-84
2023/12/07 10:23:09;;;;;;;4.18;2.50;;;17.40;52.20;;;;;;6006286;23;20154;-84
2023/12/07 10:25:39;;;;;;;7.68;2.13;;;17.40;52.80;;;;;;6028806;23;20180;-84
2023/12/07 10:28:07;;;;;;;5.68;2.33;;;17.40;51.80;;;;;;6001491;23;20185;-84
2023/12/07 10:30:34;;;;;;;3.75;1.90;;;17.40;52.10;;;;;;6025637;23;20150;-85
2023/12/07 10:33:04;;;;;;;7.57;2.22;;;17.50;52.20;;;;;;6030587;23;20157;-82
2023/12/07 10:36:01;;;;;;;;;;;;;;;;;;;;;
2023/12/07 10:38:32;;;;;;;7.32;2.25;;;17.50;52.10;;;;;;5917345;24;20180;-84
2023/12/07 10:41:14;;;;;;;7.13;2.22;;;17.50;51.80;;;;;;5937948;24;20163;-84
2023/12/07 10:43:48;;;;;;;6.30;2.25;;;17.40;51.90;;;;;;5856000;24;20163;-85
2023/12/07 10:46:28;;;;;;;5.97;2.22;;;17.50;51.90;;;;;;5855815;24;20166;-85
2023/12/07 12:06:58;;;;;;;4.50;1.88;;;17.50;51.60;;;;;;6192470;23;20680;-85
2023/12/07 12:09:27;;;;;;;3.53;1.92;;;17.50;51.80;;;;;;6169649;23;20135;-86
2023/12/07 12:11:53;;;;;;;4.72;1.95;;;17.50;51.60;;;;;;6145053;23;20135;-85
2023/12/07 12:14:31;;;;;;;2.55;1.83;;;17.50;51.60;;;;;;6075853;23;20189;-85
2023/12/07 12:16:59;;;;;;;3.40;1.80;;;17.50;52.00;;;;;;6044443;23;20153;-86
2023/12/07 12:19:46;;;;;;;5.78;2.22;;;17.50;51.80;;;;;;6018789;23;20235;-85
2023/12/07 12:22:11;;;;;;;3.40;1.90;;;17.60;51.30;;;;;;5972194;23;20162;-83
2023/12/07 12:24:44;;;;;;;4.07;2.05;;;17.50;52.10;;;;;;6018739;23;20621;-87
2023/12/07 12:27:11;;;;;;;3.10;1.92;;;17.50;51.60;;;;;;5971183;23;20209;-84
2023/12/07 12:29:36;;;;;;;3.53;2.28;;;17.50;51.80;;;;;;5988835;23;20151;-85
2023/12/07 12:35:57;;;;;;;;;;;;;;;;;;;;;
2023/12/07 12:41:57;;;;;;;3.33;1.60;;;17.50;51.90;;;;;;5821104;24;20170;-83
2023/12/07 12:44:33;;;;;;;4.60;2.25;;;17.50;51.20;;;;;;5808566;24;20233;-81
2023/12/07 12:47:08;;;;;;;2.58;1.80;;;17.50;51.20;;;;;;5880626;24;20161;-86
2023/12/07 12:49:46;;;;;;;3.28;1.90;;;17.50;51.40;;;;;;5905163;24;20201;-85
2023/12/07 12:52:39;;;;;;;4.25;2.00;;;17.50;51.30;;;;;;5901764;24;20157;-83
2023/12/07 12:55:12;;;;;;;3.40;2.15;;;17.50;51.70;;;;;;5909462;24;20185;-81
2023/12/07 12:57:41;;;;;;;6.20;1.92;;;17.50;51.60;;;;;;5910218;24;20621;-82
2023/12/07 13:00:08;;;;;;;3.25;2.00;;;17.50;51.40;;;;;;5904343;24;20154;-81
2023/12/07 13:03:19;;;;;;;5.20;2.05;;;17.50;51.60;;;;;;5905526;24;20558;-82
2023/12/07 13:05:48;;;;;;;3.88;1.70;;;17.50;51.80;;;;;;5875095;24;20550;-85
2023/12/07 13:11:32;;;;;;;4.97;2.00;;;17.60;51.60;;;;;;5890889;24;20168;-84
2023/12/07 13:14:07;;;;;;;2.70;1.80;;;17.60;51.60;;;;;;5863437;24;20230;-82
2023/12/07 13:16:33;;;;;;;2.17;1.83;;;17.60;51.70;;;;;;5864279;24;20191;-83
2023/12/07 13:19:04;;;;;;;3.90;1.80;;;17.60;51.40;;;;;;5898611;24;20160;-83
2023/12/07 13:21:45;;;;;;;4.88;1.80;;;17.60;52.40;;;;;;5906882;24;20164;-84
2023/12/07 13:24:14;;;;;;;4.47;1.90;;;17.60;52.30;;;;;;5883627;24;20177;-83
2023/12/07 13:27:15;;;;;;;5.45;1.80;;;17.70;52.40;;;;;;5885084;24;20202;-84
2023/12/07 13:54:04;;;;;;;4.97;1.70;;;17.80;51.60;;;;;;6016908;23;20184;-84
2023/12/07 14:07:06;;;;;;;3.58;2.05;;;17.70;52.30;;;;;;6158303;23;20202;-80
2023/12/07 14:09:35;;;;;;;3.85;2.00;;;17.80;51.60;;;;;;6164146;23;20154;-81
2023/12/07 14:12:33;;;;;;;5.10;2.00;;;17.80;52.30;;;;;;6111575;23;20602;-86
2023/12/07 14:15:10;;;;;;;4.53;1.90;;;17.70;52.00;;;;;;6142962;23;20206;-85
2023/12/07 14:17:41;;;;;;;2.95;2.30;;;17.70;51.60;;;;;;6069360;23;20158;-84
2023/12/07 14:20:14;;;;;;;2.25;1.63;;;17.80;50.80;;;;;;6070595;23;20157;-82
2023/12/07 14:22:43;;;;;;;4.60;2.20;;;17.90;51.30;;;;;;5990140;23;20185;-84
2023/12/07 14:25:27;;;;;;;;;;;;;;;;;;;;;
2023/12/07 14:28:00;;;;;;;3.50;2.03;;;17.90;51.00;;;;;;5906888;24;20251;-84
2023/12/07 14:30:27;;;;;;;3.22;1.98;;;18.00;51.10;;;;;;5863525;24;20766;-84
2023/12/07 14:32:53;;;;;;;5.28;2.10;;;17.90;51.30;;;;;;5904744;24;20469;-83
2023/12/07 14:35:27;;;;;;;4.40;1.88;;;17.90;51.60;;;;;;5927861;24;20222;-83
2023/12/07 14:38:20;;;;;;;3.42;1.70;;;17.90;51.60;;;;;;5906975;24;20155;-83
2023/12/07 14:40:57;;;;;;;3.28;1.77;;;17.90;52.20;;;;;;5938588;24;20492;-84
2023/12/07 14:43:23;;;;;;;4.47;2.08;;;17.90;51.80;;;;;;5931090;24;20163;-84
2023/12/07 14:45:59;;;;;;;3.58;1.70;;;17.90;51.70;;;;;;5930854;24;20182;-84
2023/12/07 14:48:25;;;;;;;5.25;1.52;;;17.90;52.70;;;;;;5932128;24;20179;-84
2023/12/07 14:50:53;;;;;;;3.70;2.10;;;17.90;52.20;;;;;;5930406;24;20157;-84
2023/12/07 14:53:30;;;;;;;4.22;2.00;;;17.90;52.10;;;;;;5952806;23;20151;-84
2023/12/07 14:55:59;;;;;;;4.50;1.90;;;17.90;52.50;;;;;;5984638;23;20167;-83
2023/12/07 14:58:30;;;;;;;3.38;1.60;;;17.90;52.50;;;;;;5937858;24;20160;-83
2023/12/07 15:07:54;;;;;;;4.45;1.92;;;18.00;52.80;;;;;;6097307;23;20238;-84
2023/12/07 15:10:42;;;;;;;3.05;1.98;;;18.00;52.90;;;;;;6072818;23;20593;-83
2023/12/07 15:13:11;;;;;;;4.78;2.20;;;18.00;52.70;;;;;;6069364;23;20817;-84
2023/12/07 15:15:39;;;;;;;2.88;2.00;;;18.10;52.20;;;;;;6074307;23;20181;-83
2023/12/07 15:18:07;;;;;;;2.83;2.03;;;18.00;52.20;;;;;;6045135;23;20158;-84
2023/12/07 15:20:33;;;;;;;3.78;2.25;;;18.10;52.10;;;;;;6044592;23;20217;-83
2023/12/07 15:23:08;;;;;;;3.05;1.67;;;18.10;52.00;;;;;;6044268;23;20154;-84
2023/12/07 15:25:36;;;;;;;4.75;2.05;;;18.00;52.40;;;;;;6052561;23;20156;-85
2023/12/07 15:28:14;;;;;;;;;;;;;;;;;;;;;
2023/12/07 15:30:56;;;;;;;5.63;2.00;;;18.10;52.10;;;;;;6099905;23;20176;-85
2023/12/07 15:33:54;;;;;;;5.18;1.83;;;18.20;51.90;;;;;;6080594;23;20195;-84
2023/12/07 15:36:27;;;;;;;5.43;2.20;;;18.10;52.60;;;;;;6075583;23;20222;-84
2023/12/07 15:39:02;;;;;;;5.95;2.17;;;18.10;52.40;;;;;;6034562;23;20148;-83
2023/12/07 15:42:01;;;;;;;4.47;1.75;;;18.20;52.20;;;;;;6020895;23;20180;-86
2023/12/07 15:44:55;;;;;;;4.32;2.05;;;18.10;52.30;;;;;;6045940;23;20193;-86